sensor_id;sensor_type;location;lat;lon;timestamp;temperature;humidity
56322;DHT22;42227;6.376;-10.782;2023-08-21T00:01:51;25.00;99.90
56322;DHT22;42227;6.376;-10.782;2023-08-21T00:04:19;25.00;99.90
56322;DHT22;42227;6.376;-10.782;2023-08-21T00:06:48;24.90;99.90
56322;DHT22;42227;6.376;-10.782;2023-08-21T00:09:16;24.80;99.90
56322;DHT22;42227;6.376;-10.782;2023-08-21T00:11:44;24.80;99.90
56322;DHT22;42227;6.376;-10.782;2023-08-21T00:14:13;24.80;99.90
56322;DHT22;42227;6.376;-10.782;2023-08-21T00:16:41;24.70;99.90
56322;DHT22;42227;6.376;-10.782;2023-08-21T00:19:10;24.70;99.90
56322;DHT22;42227;6.376;-10.782;2023-08-21T00:21:38;24.70;99.90
56322;DHT22;42227;6.376;-10.782;2023-08-21T00:24:06;24.60;99.90
56322;DHT22;42227;6.376;-10.782;2023-08-21T00:26:35;24.70;99.90
56322;DHT22;42227;6.376;-10.782;2023-08-21T00:29:03;24.70;99.90
56322;DHT22;42227;6.376;-10.782;2023-08-21T00:31:32;24.70;99.90
56322;DHT22;42227;6.376;-10.782;2023-08-21T00:34:00;24.80;99.90
56322;DHT22;42227;6.376;-10.782;2023-08-21T00:36:29;24.80;99.90
56322;DHT22;42227;6.376;-10.782;2023-08-21T00:38:57;24.70;99.90
56322;DHT22;42227;6.376;-10.782;2023-08-21T00:41:25;24.90;99.90
56322;DHT22;42227;6.376;-10.782;2023-08-21T00:43:54;24.90;99.90
56322;DHT22;42227;6.376;-10.782;2023-08-21T00:46:22;25.10;99.90
56322;DHT22;42227;6.376;-10.782;2023-08-21T00:48:51;24.90;99.90
56322;DHT22;42227;6.376;-10.782;2023-08-21T00:51:20;24.70;99.90
56322;DHT22;42227;6.376;-10.782;2023-08-21T00:53:49;24.60;99.90
56322;DHT22;42227;6.376;-10.782;2023-08-21T00:56:19;24.70;99.90
56322;DHT22;42227;6.376;-10.782;2023-08-21T00:58:47;24.70;99.90
56322;DHT22;42227;6.376;-10.782;2023-08-21T01:01:18;24.70;99.90
56322;DHT22;42227;6.376;-10.782;2023-08-21T01:03:48;24.50;99.90
56322;DHT22;42227;6.376;-10.782;2023-08-21T01:06:18;24.40;99.90
56322;DHT22;42227;6.376;-10.782;2023-08-21T01:14:28;24.60;99.90
56322;DHT22;42227;6.376;-10.782;2023-08-21T01:17:03;24.70;99.90
56322;DHT22;42227;6.376;-10.782;2023-08-21T01:19:44;24.90;99.90
56322;DHT22;42227;6.376;-10.782;2023-08-21T01:22:14;25.20;99.90
56322;DHT22;42227;6.376;-10.782;2023-08-21T01:24:43;25.30;99.90
56322;DHT22;42227;6.376;-10.782;2023-08-21T01:27:12;25.20;99.90
56322;DHT22;42227;6.376;-10.782;2023-08-21T01:29:42;25.10;99.90
56322;DHT22;42227;6.376;-10.782;2023-08-21T01:32:40;24.90;99.90
56322;DHT22;42227;6.376;-10.782;2023-08-21T01:35:11;24.70;99.90
56322;DHT22;42227;6.376;-10.782;2023-08-21T01:37:40;24.60;99.90
56322;DHT22;42227;6.376;-10.782;2023-08-21T01:40:09;24.50;99.90
56322;DHT22;42227;6.376;-10.782;2023-08-21T01:42:38;24.60;99.90
56322;DHT22;42227;6.376;-10.782;2023-08-21T01:45:07;24.50;99.90
56322;DHT22;42227;6.376;-10.782;2023-08-21T01:47:36;24.30;99.90
56322;DHT22;42227;6.376;-10.782;2023-08-21T01:50:05;24.40;99.90
56322;DHT22;42227;6.376;-10.782;2023-08-21T01:52:34;24.50;1.00
56322;DHT22;42227;6.376;-10.782;2023-08-21T01:55:03;24.60;1.00
56322;DHT22;42227;6.376;-10.782;2023-08-21T01:57:32;24.60;99.90
56322;DHT22;42227;6.376;-10.782;2023-08-21T02:00:01;24.70;1.00
56322;DHT22;42227;6.376;-10.782;2023-08-21T02:02:40;24.80;99.90
56322;DHT22;42227;6.376;-10.782;2023-08-21T02:05:09;24.80;99.90
56322;DHT22;42227;6.376;-10.782;2023-08-21T02:07:38;24.70;99.90
56322;DHT22;42227;6.376;-10.782;2023-08-21T02:10:07;24.80;99.90
56322;DHT22;42227;6.376;-10.782;2023-08-21T02:12:36;24.80;99.90
56322;DHT22;42227;6.376;-10.782;2023-08-21T02:15:09;24.70;99.90
56322;DHT22;42227;6.376;-10.782;2023-08-21T02:17:39;24.60;99.90
56322;DHT22;42227;6.376;-10.782;2023-08-21T02:20:08;24.60;99.90
56322;DHT22;42227;6.376;-10.782;2023-08-21T02:22:37;24.60;99.90
56322;DHT22;42227;6.376;-10.782;2023-08-21T02:25:06;24.70;99.90
56322;DHT22;42227;6.376;-10.782;2023-08-21T02:27:35;24.70;99.90
56322;DHT22;42227;6.376;-10.782;2023-08-21T02:30:04;24.50;99.90
56322;DHT22;42227;6.376;-10.782;2023-08-21T02:32:33;24.40;99.90
56322;DHT22;42227;6.376;-10.782;2023-08-21T02:35:01;24.40;1.00
56322;DHT22;42227;6.376;-10.782;2023-08-21T02:37:30;24.50;1.00
56322;DHT22;42227;6.376;-10.782;2023-08-21T02:39:58;24.50;1.00
56322;DHT22;42227;6.376;-10.782;2023-08-21T02:42:27;24.50;1.00
56322;DHT22;42227;6.376;-10.782;2023-08-21T02:44:55;24.50;1.00
56322;DHT22;42227;6.376;-10.782;2023-08-21T02:47:24;24.70;1.00
56322;DHT22;42227;6.376;-10.782;2023-08-21T02:49:52;24.90;1.00
56322;DHT22;42227;6.376;-10.782;2023-08-21T02:52:21;25.00;1.00
56322;DHT22;42227;6.376;-10.782;2023-08-21T02:54:49;25.00;99.90
56322;DHT22;42227;6.376;-10.782;2023-08-21T02:57:17;24.80;99.90
56322;DHT22;42227;6.376;-10.782;2023-08-21T02:59:47;24.70;99.90
56322;DHT22;42227;6.376;-10.782;2023-08-21T03:02:16;24.60;99.90
56322;DHT22;42227;6.376;-10.782;2023-08-21T03:04:45;24.50;1.00
56322;DHT22;42227;6.376;-10.782;2023-08-21T03:07:14;24.50;1.00
56322;DHT22;42227;6.376;-10.782;2023-08-21T03:09:44;24.40;1.00
56322;DHT22;42227;6.376;-10.782;2023-08-21T03:12:13;24.40;1.00
56322;DHT22;42227;6.376;-10.782;2023-08-21T03:14:41;24.40;1.00
56322;DHT22;42227;6.376;-10.782;2023-08-21T03:17:10;24.40;1.00
56322;DHT22;42227;6.376;-10.782;2023-08-21T03:19:38;24.50;1.00
56322;DHT22;42227;6.376;-10.782;2023-08-21T03:22:07;24.80;1.00
56322;DHT22;42227;6.376;-10.782;2023-08-21T03:24:35;24.90;1.00
56322;DHT22;42227;6.376;-10.782;2023-08-21T03:27:04;25.00;1.00
56322;DHT22;42227;6.376;-10.782;2023-08-21T03:29:32;25.00;1.00
56322;DHT22;42227;6.376;-10.782;2023-08-21T03:32:01;24.80;1.00
56322;DHT22;42227;6.376;-10.782;2023-08-21T03:34:30;24.70;1.00
56322;DHT22;42227;6.376;-10.782;2023-08-21T03:37:01;24.60;1.00
56322;DHT22;42227;6.376;-10.782;2023-08-21T03:39:31;24.50;1.00
56322;DHT22;42227;6.376;-10.782;2023-08-21T03:42:02;24.50;1.00
56322;DHT22;42227;6.376;-10.782;2023-08-21T03:44:31;24.50;1.00
56322;DHT22;42227;6.376;-10.782;2023-08-21T03:46:59;24.40;1.00
56322;DHT22;42227;6.376;-10.782;2023-08-21T03:49:33;24.40;1.00
56322;DHT22;42227;6.376;-10.782;2023-08-21T03:52:01;24.30;1.00
56322;DHT22;42227;6.376;-10.782;2023-08-21T03:54:30;24.30;11.60
56322;DHT22;42227;6.376;-10.782;2023-08-21T03:56:58;24.30;65.20
56322;DHT22;42227;6.376;-10.782;2023-08-21T03:59:26;24.40;99.90
56322;DHT22;42227;6.376;-10.782;2023-08-21T04:01:55;24.50;99.90
56322;DHT22;42227;6.376;-10.782;2023-08-21T04:04:23;24.60;99.90
56322;DHT22;42227;6.376;-10.782;2023-08-21T04:06:52;24.90;99.90
56322;DHT22;42227;6.376;-10.782;2023-08-21T04:09:20;24.80;99.00
56322;DHT22;42227;6.376;-10.782;2023-08-21T04:11:50;24.60;96.50
56322;DHT22;42227;6.376;-10.782;2023-08-21T04:14:19;24.60;99.90
56322;DHT22;42227;6.376;-10.782;2023-08-21T04:16:47;24.50;99.90
56322;DHT22;42227;6.376;-10.782;2023-08-21T04:19:16;24.50;99.90
56322;DHT22;42227;6.376;-10.782;2023-08-21T04:21:44;24.50;99.90
56322;DHT22;42227;6.376;-10.782;2023-08-21T04:24:12;24.50;99.90
56322;DHT22;42227;6.376;-10.782;2023-08-21T04:26:41;24.40;99.90
56322;DHT22;42227;6.376;-10.782;2023-08-21T04:29:10;24.40;99.90
56322;DHT22;42227;6.376;-10.782;2023-08-21T04:31:38;24.40;99.90
56322;DHT22;42227;6.376;-10.782;2023-08-21T04:34:07;24.30;99.90
56322;DHT22;42227;6.376;-10.782;2023-08-21T04:36:36;24.30;99.90
56322;DHT22;42227;6.376;-10.782;2023-08-21T04:39:04;24.40;99.90
56322;DHT22;42227;6.376;-10.782;2023-08-21T04:41:33;24.50;99.90
56322;DHT22;42227;6.376;-10.782;2023-08-21T04:44:01;24.70;99.90
56322;DHT22;42227;6.376;-10.782;2023-08-21T04:46:30;24.80;99.90
56322;DHT22;42227;6.376;-10.782;2023-08-21T04:48:59;24.60;67.50
56322;DHT22;42227;6.376;-10.782;2023-08-21T04:51:28;24.50;61.90
56322;DHT22;42227;6.376;-10.782;2023-08-21T04:53:59;24.30;83.50
56322;DHT22;42227;6.376;-10.782;2023-08-21T04:56:27;24.20;99.90
56322;DHT22;42227;6.376;-10.782;2023-08-21T04:58:56;24.20;99.90
56322;DHT22;42227;6.376;-10.782;2023-08-21T05:01:26;24.10;99.90
56322;DHT22;42227;6.376;-10.782;2023-08-21T05:03:57;24.10;99.90
56322;DHT22;42227;6.376;-10.782;2023-08-21T05:06:26;24.10;99.90
56322;DHT22;42227;6.376;-10.782;2023-08-21T05:08:55;24.10;99.90
56322;DHT22;42227;6.376;-10.782;2023-08-21T05:11:24;24.10;99.90
56322;DHT22;42227;6.376;-10.782;2023-08-21T05:13:52;23.90;99.90
56322;DHT22;42227;6.376;-10.782;2023-08-21T05:16:22;24.00;99.90
56322;DHT22;42227;6.376;-10.782;2023-08-21T05:18:51;24.10;99.90
56322;DHT22;42227;6.376;-10.782;2023-08-21T05:21:19;24.30;99.90
56322;DHT22;42227;6.376;-10.782;2023-08-21T05:23:48;24.30;99.90
56322;DHT22;42227;6.376;-10.782;2023-08-21T05:26:16;24.30;99.90
56322;DHT22;42227;6.376;-10.782;2023-08-21T05:28:45;24.20;99.90
56322;DHT22;42227;6.376;-10.782;2023-08-21T05:31:13;24.10;99.90
56322;DHT22;42227;6.376;-10.782;2023-08-21T05:33:50;24.00;99.90
56322;DHT22;42227;6.376;-10.782;2023-08-21T05:36:18;24.00;99.90
56322;DHT22;42227;6.376;-10.782;2023-08-21T05:38:47;24.00;99.90
56322;DHT22;42227;6.376;-10.782;2023-08-21T05:41:15;24.00;99.90
56322;DHT22;42227;6.376;-10.782;2023-08-21T05:43:44;24.00;99.90
56322;DHT22;42227;6.376;-10.782;2023-08-21T05:46:13;24.00;99.90
56322;DHT22;42227;6.376;-10.782;2023-08-21T05:48:42;23.90;99.90
56322;DHT22;42227;6.376;-10.782;2023-08-21T05:51:10;23.90;99.90
56322;DHT22;42227;6.376;-10.782;2023-08-21T05:53:38;23.90;99.90
56322;DHT22;42227;6.376;-10.782;2023-08-21T05:56:07;24.00;99.90
56322;DHT22;42227;6.376;-10.782;2023-08-21T05:58:36;24.00;99.90
56322;DHT22;42227;6.376;-10.782;2023-08-21T06:01:07;23.90;99.90
56322;DHT22;42227;6.376;-10.782;2023-08-21T06:03:36;23.80;99.90
56322;DHT22;42227;6.376;-10.782;2023-08-21T06:06:15;23.90;99.90
56322;DHT22;42227;6.376;-10.782;2023-08-21T06:08:43;23.90;99.90
56322;DHT22;42227;6.376;-10.782;2023-08-21T06:11:11;23.90;99.90
56322;DHT22;42227;6.376;-10.782;2023-08-21T06:13:40;23.90;99.90
56322;DHT22;42227;6.376;-10.782;2023-08-21T06:16:10;23.90;99.90
56322;DHT22;42227;6.376;-10.782;2023-08-21T06:18:40;23.90;99.90
56322;DHT22;42227;6.376;-10.782;2023-08-21T06:21:09;23.80;99.90
56322;DHT22;42227;6.376;-10.782;2023-08-21T06:23:38;23.80;99.90
56322;DHT22;42227;6.376;-10.782;2023-08-21T06:26:06;23.90;99.90
56322;DHT22;42227;6.376;-10.782;2023-08-21T06:28:35;23.90;99.90
56322;DHT22;42227;6.376;-10.782;2023-08-21T06:31:04;24.00;99.90
56322;DHT22;42227;6.376;-10.782;2023-08-21T06:33:33;24.00;99.90
56322;DHT22;42227;6.376;-10.782;2023-08-21T06:36:02;24.10;99.90
56322;DHT22;42227;6.376;-10.782;2023-08-21T06:38:30;24.40;99.90
56322;DHT22;42227;6.376;-10.782;2023-08-21T06:41:01;24.40;99.90
56322;DHT22;42227;6.376;-10.782;2023-08-21T06:43:35;24.20;99.90
56322;DHT22;42227;6.376;-10.782;2023-08-21T06:46:04;24.10;99.90
56322;DHT22;42227;6.376;-10.782;2023-08-21T06:48:33;24.00;99.90
56322;DHT22;42227;6.376;-10.782;2023-08-21T06:51:02;23.90;99.90
56322;DHT22;42227;6.376;-10.782;2023-08-21T06:53:30;24.00;99.90
56322;DHT22;42227;6.376;-10.782;2023-08-21T06:55:59;24.00;99.90
56322;DHT22;42227;6.376;-10.782;2023-08-21T06:58:27;24.00;99.90
56322;DHT22;42227;6.376;-10.782;2023-08-21T07:00:56;24.00;99.90
56322;DHT22;42227;6.376;-10.782;2023-08-21T07:03:24;24.10;99.90
56322;DHT22;42227;6.376;-10.782;2023-08-21T07:05:58;24.30;99.90
56322;DHT22;42227;6.376;-10.782;2023-08-21T07:08:27;24.40;99.90
56322;DHT22;42227;6.376;-10.782;2023-08-21T07:10:55;24.30;99.90
56322;DHT22;42227;6.376;-10.782;2023-08-21T07:13:24;24.50;99.90
56322;DHT22;42227;6.376;-10.782;2023-08-21T07:15:53;24.80;99.90
56322;DHT22;42227;6.376;-10.782;2023-08-21T07:18:21;25.00;99.90
56322;DHT22;42227;6.376;-10.782;2023-08-21T07:20:52;25.10;99.90
56322;DHT22;42227;6.376;-10.782;2023-08-21T07:23:20;24.90;56.40
56322;DHT22;42227;6.376;-10.782;2023-08-21T07:25:49;25.00;28.60
56322;DHT22;42227;6.376;-10.782;2023-08-21T07:28:17;25.30;1.00
56322;DHT22;42227;6.376;-10.782;2023-08-21T07:30:46;25.20;1.00
56322;DHT22;42227;6.376;-10.782;2023-08-21T07:33:14;25.60;1.00
56322;DHT22;42227;6.376;-10.782;2023-08-21T07:35:43;25.90;1.00
56322;DHT22;42227;6.376;-10.782;2023-08-21T07:38:11;26.20;99.90
56322;DHT22;42227;6.376;-10.782;2023-08-21T07:40:39;26.40;99.90
56322;DHT22;42227;6.376;-10.782;2023-08-21T07:43:11;26.20;99.90
56322;DHT22;42227;6.376;-10.782;2023-08-21T07:45:39;26.80;99.90
56322;DHT22;42227;6.376;-10.782;2023-08-21T07:48:08;28.20;64.90
56322;DHT22;42227;6.376;-10.782;2023-08-21T07:50:41;29.70;1.00
56322;DHT22;42227;6.376;-10.782;2023-08-21T07:53:10;29.40;1.00
56322;DHT22;42227;6.376;-10.782;2023-08-21T07:55:38;28.80;1.00
56322;DHT22;42227;6.376;-10.782;2023-08-21T07:58:06;27.90;1.00
56322;DHT22;42227;6.376;-10.782;2023-08-21T08:00:35;28.70;1.00
56322;DHT22;42227;6.376;-10.782;2023-08-21T08:03:03;29.50;1.00
56322;DHT22;42227;6.376;-10.782;2023-08-21T08:05:32;29.60;1.00
56322;DHT22;42227;6.376;-10.782;2023-08-21T08:08:01;29.60;1.00
56322;DHT22;42227;6.376;-10.782;2023-08-21T08:10:30;28.90;1.00
56322;DHT22;42227;6.376;-10.782;2023-08-21T08:12:59;28.10;1.00
56322;DHT22;42227;6.376;-10.782;2023-08-21T08:15:27;26.80;1.00
56322;DHT22;42227;6.376;-10.782;2023-08-21T08:17:56;26.40;18.60
56322;DHT22;42227;6.376;-10.782;2023-08-21T08:20:25;26.50;37.80
56322;DHT22;42227;6.376;-10.782;2023-08-21T08:22:54;26.70;29.20
56322;DHT22;42227;6.376;-10.782;2023-08-21T08:25:23;26.90;27.00
56322;DHT22;42227;6.376;-10.782;2023-08-21T08:27:52;27.10;33.40
56322;DHT22;42227;6.376;-10.782;2023-08-21T08:30:20;27.50;1.00
56322;DHT22;42227;6.376;-10.782;2023-08-21T08:32:55;27.90;1.00
56322;DHT22;42227;6.376;-10.782;2023-08-21T08:35:28;28.00;1.00
56322;DHT22;42227;6.376;-10.782;2023-08-21T08:37:57;28.30;1.00
56322;DHT22;42227;6.376;-10.782;2023-08-21T08:40:25;29.60;1.00
56322;DHT22;42227;6.376;-10.782;2023-08-21T08:42:54;33.20;99.90
56322;DHT22;42227;6.376;-10.782;2023-08-21T08:45:29;34.20;99.90
56322;DHT22;42227;6.376;-10.782;2023-08-21T08:48:01;36.20;99.90
56322;DHT22;42227;6.376;-10.782;2023-08-21T08:50:31;36.60;99.90
56322;DHT22;42227;6.376;-10.782;2023-08-21T08:55:44;37.40;99.90
56322;DHT22;42227;6.376;-10.782;2023-08-21T08:58:13;36.80;99.90
56322;DHT22;42227;6.376;-10.782;2023-08-21T09:00:41;37.40;99.90
56322;DHT22;42227;6.376;-10.782;2023-08-21T09:03:10;38.30;99.90
56322;DHT22;42227;6.376;-10.782;2023-08-21T09:05:40;37.30;99.90
56322;DHT22;42227;6.376;-10.782;2023-08-21T09:08:09;38.20;99.90
56322;DHT22;42227;6.376;-10.782;2023-08-21T09:10:38;39.60;99.90
56322;DHT22;42227;6.376;-10.782;2023-08-21T09:13:25;40.00;99.90
56322;DHT22;42227;6.376;-10.782;2023-08-21T09:15:55;40.30;99.90
56322;DHT22;42227;6.376;-10.782;2023-08-21T09:18:23;40.10;99.90
56322;DHT22;42227;6.376;-10.782;2023-08-21T09:20:52;39.80;99.90
56322;DHT22;42227;6.376;-10.782;2023-08-21T09:23:20;38.10;99.90
56322;DHT22;42227;6.376;-10.782;2023-08-21T09:25:50;36.90;99.90
56322;DHT22;42227;6.376;-10.782;2023-08-21T09:28:20;37.90;99.90
56322;DHT22;42227;6.376;-10.782;2023-08-21T09:30:58;39.50;99.90
56322;DHT22;42227;6.376;-10.782;2023-08-21T09:33:27;38.00;99.90
56322;DHT22;42227;6.376;-10.782;2023-08-21T09:35:55;37.00;99.90
56322;DHT22;42227;6.376;-10.782;2023-08-21T09:38:26;36.30;99.90
56322;DHT22;42227;6.376;-10.782;2023-08-21T09:40:55;38.60;99.90
56322;DHT22;42227;6.376;-10.782;2023-08-21T09:43:24;38.20;99.90
56322;DHT22;42227;6.376;-10.782;2023-08-21T09:45:54;36.10;99.90
56322;DHT22;42227;6.376;-10.782;2023-08-21T09:48:25;34.10;99.90
56322;DHT22;42227;6.376;-10.782;2023-08-21T09:50:54;34.50;99.90
56322;DHT22;42227;6.376;-10.782;2023-08-21T09:53:23;33.30;99.90
56322;DHT22;42227;6.376;-10.782;2023-08-21T09:55:54;33.90;99.90
56322;DHT22;42227;6.376;-10.782;2023-08-21T09:58:23;33.70;99.90
56322;DHT22;42227;6.376;-10.782;2023-08-21T10:00:52;34.50;99.90
56322;DHT22;42227;6.376;-10.782;2023-08-21T10:03:24;33.40;99.90
56322;DHT22;42227;6.376;-10.782;2023-08-21T10:05:57;33.70;99.90
56322;DHT22;42227;6.376;-10.782;2023-08-21T10:08:27;33.50;99.90
56322;DHT22;42227;6.376;-10.782;2023-08-21T10:10:57;33.20;99.90
56322;DHT22;42227;6.376;-10.782;2023-08-21T10:13:32;32.90;99.90
56322;DHT22;42227;6.376;-10.782;2023-08-21T10:16:01;32.30;99.90
56322;DHT22;42227;6.376;-10.782;2023-08-21T10:18:35;31.60;99.90
56322;DHT22;42227;6.376;-10.782;2023-08-21T10:21:18;31.10;99.90
56322;DHT22;42227;6.376;-10.782;2023-08-21T10:23:48;30.70;99.90
56322;DHT22;42227;6.376;-10.782;2023-08-21T10:26:21;30.10;99.90
56322;DHT22;42227;6.376;-10.782;2023-08-21T10:28:55;29.70;99.90
56322;DHT22;42227;6.376;-10.782;2023-08-21T10:31:35;29.40;99.90
56322;DHT22;42227;6.376;-10.782;2023-08-21T10:39:17;28.60;99.90
56322;DHT22;42227;6.376;-10.782;2023-08-21T10:44:36;28.80;99.90
56322;DHT22;42227;6.376;-10.782;2023-08-21T10:49:44;28.90;99.90
56322;DHT22;42227;6.376;-10.782;2023-08-21T10:52:14;29.00;99.90
56322;DHT22;42227;6.376;-10.782;2023-08-21T10:54:47;29.00;99.90
56322;DHT22;42227;6.376;-10.782;2023-08-21T10:57:16;29.10;99.90
56322;DHT22;42227;6.376;-10.782;2023-08-21T10:59:59;29.10;99.90
56322;DHT22;42227;6.376;-10.782;2023-08-21T11:02:28;29.70;99.90
56322;DHT22;42227;6.376;-10.782;2023-08-21T11:04:58;30.20;99.90
56322;DHT22;42227;6.376;-10.782;2023-08-21T11:07:27;30.80;99.90
56322;DHT22;42227;6.376;-10.782;2023-08-21T11:09:56;31.00;99.90
56322;DHT22;42227;6.376;-10.782;2023-08-21T11:12:25;31.10;99.90
56322;DHT22;42227;6.376;-10.782;2023-08-21T11:14:54;31.20;99.90
56322;DHT22;42227;6.376;-10.782;2023-08-21T11:17:22;31.80;99.90
56322;DHT22;42227;6.376;-10.782;2023-08-21T11:19:51;32.10;99.90
56322;DHT22;42227;6.376;-10.782;2023-08-21T11:22:19;32.30;99.90
56322;DHT22;42227;6.376;-10.782;2023-08-21T11:24:48;31.90;99.90
56322;DHT22;42227;6.376;-10.782;2023-08-21T11:27:20;32.20;99.90
56322;DHT22;42227;6.376;-10.782;2023-08-21T11:29:52;32.50;99.90
56322;DHT22;42227;6.376;-10.782;2023-08-21T11:32:22;32.40;99.90
56322;DHT22;42227;6.376;-10.782;2023-08-21T11:34:53;31.90;99.90
56322;DHT22;42227;6.376;-10.782;2023-08-21T11:37:25;31.80;99.90
56322;DHT22;42227;6.376;-10.782;2023-08-21T11:39:57;31.60;99.90
56322;DHT22;42227;6.376;-10.782;2023-08-21T11:42:31;31.40;99.90
56322;DHT22;42227;6.376;-10.782;2023-08-21T11:45:01;31.30;99.90
56322;DHT22;42227;6.376;-10.782;2023-08-21T11:47:32;31.10;99.90
56322;DHT22;42227;6.376;-10.782;2023-08-21T11:50:06;31.00;99.90
56322;DHT22;42227;6.376;-10.782;2023-08-21T11:52:37;30.50;99.90
56322;DHT22;42227;6.376;-10.782;2023-08-21T11:55:09;30.20;99.90
56322;DHT22;42227;6.376;-10.782;2023-08-21T11:57:52;29.90;99.90
56322;DHT22;42227;6.376;-10.782;2023-08-21T12:00:27;29.80;99.90
56322;DHT22;42227;6.376;-10.782;2023-08-21T12:03:00;29.50;99.90
56322;DHT22;42227;6.376;-10.782;2023-08-21T12:05:29;29.30;99.90
56322;DHT22;42227;6.376;-10.782;2023-08-21T12:07:58;29.10;99.90
56322;DHT22;42227;6.376;-10.782;2023-08-21T12:10:27;28.80;99.90
56322;DHT22;42227;6.376;-10.782;2023-08-21T12:12:56;28.90;99.90
56322;DHT22;42227;6.376;-10.782;2023-08-21T12:15:26;29.00;99.90
56322;DHT22;42227;6.376;-10.782;2023-08-21T12:17:54;29.00;99.90
56322;DHT22;42227;6.376;-10.782;2023-08-21T12:20:24;29.20;99.90
56322;DHT22;42227;6.376;-10.782;2023-08-21T12:22:52;29.20;99.90
56322;DHT22;42227;6.376;-10.782;2023-08-21T12:25:20;29.30;99.90
56322;DHT22;42227;6.376;-10.782;2023-08-21T12:27:49;29.20;99.90
56322;DHT22;42227;6.376;-10.782;2023-08-21T12:32:41;28.80;99.90
56322;DHT22;42227;6.376;-10.782;2023-08-21T12:35:11;28.70;99.90
56322;DHT22;42227;6.376;-10.782;2023-08-21T12:37:40;29.00;99.90
56322;DHT22;42227;6.376;-10.782;2023-08-21T12:40:08;29.30;99.90
56322;DHT22;42227;6.376;-10.782;2023-08-21T12:42:37;29.40;99.90
56322;DHT22;42227;6.376;-10.782;2023-08-21T12:45:06;29.70;99.90
56322;DHT22;42227;6.376;-10.782;2023-08-21T12:47:34;30.00;99.90
56322;DHT22;42227;6.376;-10.782;2023-08-21T12:50:03;30.10;99.90
56322;DHT22;42227;6.376;-10.782;2023-08-21T12:52:38;30.00;99.90
56322;DHT22;42227;6.376;-10.782;2023-08-21T12:55:10;30.20;99.90
56322;DHT22;42227;6.376;-10.782;2023-08-21T12:57:38;30.70;99.90
56322;DHT22;42227;6.376;-10.782;2023-08-21T13:00:10;31.30;99.90
56322;DHT22;42227;6.376;-10.782;2023-08-21T13:02:40;31.70;99.90
56322;DHT22;42227;6.376;-10.782;2023-08-21T13:05:09;31.40;99.90
56322;DHT22;42227;6.376;-10.782;2023-08-21T13:07:38;31.40;99.90
56322;DHT22;42227;6.376;-10.782;2023-08-21T13:10:09;31.60;99.90
56322;DHT22;42227;6.376;-10.782;2023-08-21T13:12:39;31.60;99.90
56322;DHT22;42227;6.376;-10.782;2023-08-21T13:15:09;31.50;99.90
56322;DHT22;42227;6.376;-10.782;2023-08-21T13:17:38;31.20;99.90
56322;DHT22;42227;6.376;-10.782;2023-08-21T13:20:07;31.50;99.90
56322;DHT22;42227;6.376;-10.782;2023-08-21T13:22:48;31.30;99.90
56322;DHT22;42227;6.376;-10.782;2023-08-21T13:25:18;31.30;99.90
56322;DHT22;42227;6.376;-10.782;2023-08-21T13:27:49;31.20;99.90
56322;DHT22;42227;6.376;-10.782;2023-08-21T13:30:18;30.70;99.90
56322;DHT22;42227;6.376;-10.782;2023-08-21T13:32:47;30.60;99.90
56322;DHT22;42227;6.376;-10.782;2023-08-21T13:35:17;30.50;99.90
56322;DHT22;42227;6.376;-10.782;2023-08-21T13:37:53;30.40;99.90
56322;DHT22;42227;6.376;-10.782;2023-08-21T13:40:23;30.40;99.90
56322;DHT22;42227;6.376;-10.782;2023-08-21T13:42:58;30.30;99.90
56322;DHT22;42227;6.376;-10.782;2023-08-21T13:45:29;30.40;99.90
56322;DHT22;42227;6.376;-10.782;2023-08-21T13:47:58;30.20;99.90
56322;DHT22;42227;6.376;-10.782;2023-08-21T13:50:26;30.20;99.90
56322;DHT22;42227;6.376;-10.782;2023-08-21T13:52:56;30.30;99.90
56322;DHT22;42227;6.376;-10.782;2023-08-21T13:55:25;30.40;99.90
56322;DHT22;42227;6.376;-10.782;2023-08-21T13:57:53;30.40;99.90
56322;DHT22;42227;6.376;-10.782;2023-08-21T14:00:22;30.30;99.90
56322;DHT22;42227;6.376;-10.782;2023-08-21T14:02:50;30.40;99.90
56322;DHT22;42227;6.376;-10.782;2023-08-21T14:05:19;30.40;99.90
56322;DHT22;42227;6.376;-10.782;2023-08-21T14:07:48;30.20;99.90
56322;DHT22;42227;6.376;-10.782;2023-08-21T14:10:16;30.10;99.90
56322;DHT22;42227;6.376;-10.782;2023-08-21T14:12:45;29.70;99.90
56322;DHT22;42227;6.376;-10.782;2023-08-21T14:15:14;29.40;99.90
56322;DHT22;42227;6.376;-10.782;2023-08-21T14:17:42;29.30;99.90
56322;DHT22;42227;6.376;-10.782;2023-08-21T14:20:11;29.40;99.90
56322;DHT22;42227;6.376;-10.782;2023-08-21T14:22:40;29.60;99.90
56322;DHT22;42227;6.376;-10.782;2023-08-21T14:25:08;29.60;99.90
56322;DHT22;42227;6.376;-10.782;2023-08-21T14:27:37;29.90;99.90
56322;DHT22;42227;6.376;-10.782;2023-08-21T14:30:06;29.90;99.90
56322;DHT22;42227;6.376;-10.782;2023-08-21T14:32:35;29.70;99.90
56322;DHT22;42227;6.376;-10.782;2023-08-21T14:35:05;29.30;99.90
56322;DHT22;42227;6.376;-10.782;2023-08-21T14:37:34;29.00;99.90
56322;DHT22;42227;6.376;-10.782;2023-08-21T14:40:03;29.00;99.90
56322;DHT22;42227;6.376;-10.782;2023-08-21T14:42:32;29.00;99.90
56322;DHT22;42227;6.376;-10.782;2023-08-21T14:45:01;29.10;99.90
56322;DHT22;42227;6.376;-10.782;2023-08-21T14:47:30;29.10;99.90
56322;DHT22;42227;6.376;-10.782;2023-08-21T14:49:59;29.10;99.90
56322;DHT22;42227;6.376;-10.782;2023-08-21T14:52:28;29.00;99.90
56322;DHT22;42227;6.376;-10.782;2023-08-21T14:54:56;29.00;99.90
56322;DHT22;42227;6.376;-10.782;2023-08-21T14:57:25;29.00;99.90
56322;DHT22;42227;6.376;-10.782;2023-08-21T14:59:54;28.90;99.90
56322;DHT22;42227;6.376;-10.782;2023-08-21T15:02:23;29.00;99.90
56322;DHT22;42227;6.376;-10.782;2023-08-21T15:04:54;29.30;99.90
56322;DHT22;42227;6.376;-10.782;2023-08-21T15:07:25;29.40;99.90
56322;DHT22;42227;6.376;-10.782;2023-08-21T15:09:57;29.50;99.90
56322;DHT22;42227;6.376;-10.782;2023-08-21T15:12:26;29.60;99.90
56322;DHT22;42227;6.376;-10.782;2023-08-21T15:14:55;29.80;99.90
56322;DHT22;42227;6.376;-10.782;2023-08-21T15:17:23;30.10;99.90
56322;DHT22;42227;6.376;-10.782;2023-08-21T15:19:53;30.30;99.90
56322;DHT22;42227;6.376;-10.782;2023-08-21T15:22:22;30.40;99.90
56322;DHT22;42227;6.376;-10.782;2023-08-21T15:24:57;30.50;99.90
56322;DHT22;42227;6.376;-10.782;2023-08-21T15:27:26;30.50;99.90
56322;DHT22;42227;6.376;-10.782;2023-08-21T15:29:55;30.30;99.90
56322;DHT22;42227;6.376;-10.782;2023-08-21T15:32:24;30.10;99.90
56322;DHT22;42227;6.376;-10.782;2023-08-21T15:34:55;29.80;99.90
56322;DHT22;42227;6.376;-10.782;2023-08-21T15:37:23;29.70;99.90
56322;DHT22;42227;6.376;-10.782;2023-08-21T15:39:52;29.50;99.90
56322;DHT22;42227;6.376;-10.782;2023-08-21T15:42:22;29.30;99.90
56322;DHT22;42227;6.376;-10.782;2023-08-21T15:44:50;29.20;99.90
56322;DHT22;42227;6.376;-10.782;2023-08-21T15:47:19;29.20;99.90
56322;DHT22;42227;6.376;-10.782;2023-08-21T15:49:53;29.00;99.90
56322;DHT22;42227;6.376;-10.782;2023-08-21T15:52:22;28.90;99.90
56322;DHT22;42227;6.376;-10.782;2023-08-21T15:54:52;29.00;99.90